Latest Coastal Weather Observations for Maria Island

IDT60701

Issued at 2:52 am EST Tuesday 30 May 2017 (issued every 10 minutes, with the page automatically refreshed every 10 minutes)

About coastal observations | Map of coastal stations | Coastal observations for TAS | Marine services | Other Formats
Station Details ID: 092124 Name: MARIA ISLAND (POINT LESUEUR) Lat: -42.66 Lon: 148.02 Height: 28.0 m
Data from the previous 72 hours. | See also: Recent months at Maria Island
Date/Time
EST
Temp
°C
Wind Pressure Rain since
9am
mm
Weather Cloud Vis
km
Sea
Height
m
Swell
Dir  Spd
kts
Gust
kts
hPa Trend Height
m
Period
s
Dir
30/02:30am 10.8 NNW 13 17 1008.7 - 0.0 - - - - - - -
30/02:00am 10.1 NNW 13 16 1009.1 - 0.0 - - - - - - -
30/01:30am 10.3 N 17 19 1009.4 - 0.0 - - - - - - -
30/01:00am 10.1 N 18 20 1009.8 - 0.0 - - - - - - -
30/12:30am 10.0 N 20 23 1010.1 - 0.0 - - - - - - -
30/12:00am 10.0 N 19 22 1010.4 - 0.0 - - - - - - -
 
Date/Time
EST
Temp
°C
Wind Pressure Rain since
9am
mm
Weather Cloud Vis
km
Sea
Height
m
Swell
Dir  Spd
kts
Gust
kts
hPa Trend Height
m
Period
s
Dir
29/11:30pm 9.8 N 18 21 1010.9 - 0.0 - - - - - - -
29/11:00pm 9.8 N 16 19 1011.1 - 0.0 - - - - - - -
29/10:30pm 10.2 N 15 18 1011.6 - 0.0 - - - - - - -
29/10:00pm 9.8 N 12 16 1011.9 - 0.0 - - - - - - -
29/09:30pm 9.9 N 13 16 1012.2 - 0.0 - - - - - - -
29/09:00pm 10.0 N 13 15 1012.2 - 0.0 - - - - - - -
29/08:30pm 9.9 N 14 16 1012.3 - 0.0 - - - - - - -
29/08:00pm 9.8 NW 10 13 1012.4 - 0.0 - - - - - - -
29/07:30pm 10.2 NNW 11 13 1012.5 - 0.0 - - - - - - -
29/07:00pm 10.4 NNW 12 17 1012.4 - 0.0 - - - - - - -
29/06:30pm 10.2 NNW 10 12 1012.6 - 0.0 - - - - - - -
29/06:00pm 10.3 NW 8 11 1012.6 - 0.0 - - - - - - -
29/05:30pm 10.2 NW 8 10 1012.7 - 0.0 - - - - - - -
29/05:00pm 10.5 NW 9 11 1012.5 - 0.0 - - - - - - -
29/04:30pm 10.6 WNW 12 14 1012.2 - 0.0 - - - - - - -
29/04:00pm 11.4 WNW 10 12 1011.7 - 0.0 - - - - - - -
29/03:30pm 11.6 WNW 8 11 1011.7 - 0.0 - - - - - - -
29/03:00pm 11.9 W 7 11 1011.5 - 0.0 - - - - - - -
29/02:30pm 11.9 WSW 13 17 1011.2 - 0.0 - - - - - - -
29/02:00pm 11.7 WNW 8 11 1011.3 - 0.0 - - - - - - -
29/01:30pm 11.7 WSW 9 13 1011.1 - 0.0 - - - - - - -
29/01:00pm 11.9 W 11 17 1011.1 - 0.0 - - - - - - -
29/12:30pm 11.9 W 11 19 1010.8 - 0.0 - - - - - - -
29/12:00pm 11.8 WNW 8 12 1011.0 - 0.0 - - - - - - -
29/11:30am 11.7 W 10 13 1011.0 - 0.0 - - - - - - -
29/11:00am 11.0 WNW 11 13 1011.1 - 0.0 - - - - - - -
29/10:30am 10.5 WNW 12 16 1011.1 - 0.0 - - - - - - -
29/10:00am 9.8 WNW 7 10 1011.1 - 0.0 - - - - - - -
29/09:30am 9.1 WNW 11 13 1010.9 - 0.0 - - - - - - -
29/09:00am 8.8 WNW 12 15 1010.6 - 3.0 - - - - - - -
29/08:30am 8.4 WNW 14 17 1010.2 - 3.0 - - - - - - -
29/08:00am 7.6 WNW 7 11 1010.0 - 3.0 - - - - - - -
29/07:30am 7.9 WNW 10 12 1009.6 - 3.0 - - - - - - -
29/07:00am 7.6 WNW 6 8 1009.3 - 3.0 - - - - - - -
29/06:30am 8.0 NW 6 8 1008.9 - 3.0 - - - - - - -
29/06:00am 8.1 WNW 4 7 1008.5 - 3.0 - - - - - - -
29/05:30am 8.2 WNW 6 9 1008.1 - 3.0 - - - - - - -
29/05:00am 9.0 W 13 19 1007.4 - 3.0 - - - - - - -
29/04:30am 8.5 W 11 14 1007.2 - 3.0 - - - - - - -
29/04:00am 8.6 W 11 15 1006.9 - 3.0 - - - - - - -
29/03:30am 8.9 W 11 16 1006.7 - 3.0 - - - - - - -
29/03:00am 8.8 W 10 14 1006.5 - 3.0 - - - - - - -
29/02:30am 8.8 W 12 16 1006.4 - 3.0 - - - - - - -
29/02:00am 9.1 WSW 11 15 1006.2 - 3.0 - - - - - - -
29/01:30am 9.1 WSW 13 15 1006.1 - 3.0 - - - - - - -
29/01:00am 9.1 WSW 13 16 1005.9 - 3.0 - - - - - - -
29/12:30am 9.1 W 11 13 1005.8 - 3.0 - - - - - - -
29/12:00am 9.1 W 12 15 1005.7 - 3.0 - - - - - - -
 
Date/Time
EST
Temp
°C
Wind Pressure Rain since
9am
mm
Weather Cloud Vis
km
Sea
Height
m
Swell
Dir  Spd
kts
Gust
kts
hPa Trend Height
m
Period
s
Dir
28/11:30pm 9.4 W 14 17 1005.5 - 3.0 - - - - - - -
28/11:00pm 9.5 W 10 13 1005.4 - 3.0 - - - - - - -
28/10:30pm 9.8 WSW 9 11 1005.0 - 3.0 - - - - - - -
28/10:00pm 10.0 WSW 12 15 1005.0 - 3.0 - - - - - - -
28/09:30pm 10.0 WSW 12 14 1004.8 - 3.0 - - - - - - -
28/09:00pm 10.0 WSW 12 14 1004.6 - 3.0 - - - - - - -
28/08:30pm 10.3 WSW 14 17 1004.1 - 3.0 - - - - - - -
28/08:00pm 10.4 WSW 13 16 1003.8 - 3.0 - - - - - - -
28/07:30pm 10.5 SW 12 15 1003.4 - 3.0 - - - - - - -
28/07:00pm 10.7 SW 14 18 1003.0 - 3.0 - - - - - - -
28/06:30pm 10.2 SSW 14 16 1002.5 - 3.0 - - - - - - -
28/06:00pm 10.2 SW 17 20 1002.1 - 1.8 Rain - - - - - -
28/05:30pm 10.8 SW 20 25 1001.6 - 0.6 - - - - - - -
28/05:14pm 11.8 SW 12 23 1001.3 - 0.6 - - - - - - -
28/05:00pm 11.8 WSW 9 11 1001.0 - 0.6 - - - - - - -
28/04:30pm 12.0 WSW 5 8 1000.7 - 0.6 - - - - - - -
28/04:00pm 12.3 WSW 6 9 1000.5 - 0.6 - - - - - - -
28/03:30pm 12.4 WSW 6 8 1000.2 - 0.6 - - - - - - -
28/03:00pm 12.4 WSW 6 8 999.9 - 0.6 - - - - - - -
28/02:30pm 12.5 WSW 4 6 999.7 - 0.6 - - - - - - -
28/02:00pm 12.3 W 4 6 999.4 - 0.6 - - - - - - -
28/01:30pm 12.0 WNW 8 9 999.3 - 0.6 - - - - - - -
28/01:00pm 12.0 NNW 5 6 999.4 - 0.6 - - - - - - -
28/12:30pm 11.7 WNW 2 3 999.4 - 0.6 - - - - - - -
28/12:00pm 11.6 W 3 4 999.7 - 0.6 Recent precip. - - - - - -
28/11:30am 11.1 WNW 7 8 999.8 - 0.6 - - - - - - -
28/11:00am 11.4 WNW 12 15 1000.2 - 0.4 - - - - - - -
28/10:30am 11.8 WNW 9 11 1000.2 - 0.2 - - - - - - -
28/10:00am 11.7 WNW 8 10 1000.2 - 0.2 - - - - - - -
28/09:30am 11.4 NW 5 7 1000.1 - 0.2 - - - - - - -
28/09:00am 11.2 WNW 2 3 1000.2 - 0.8 Rain - - - - - -
28/08:30am 11.5 NNW 8 10 1000.0 - 0.2 - - - - - - -
28/08:00am 11.9 NNW 9 12 1000.1 - 0.0 - - - - - - -
28/07:30am 11.9 NNW 13 15 999.9 - 0.0 - - - - - - -
28/07:00am 12.2 N 18 20 999.4 - 0.0 - - - - - - -
28/06:30am 12.6 N 18 23 999.6 - 0.0 - - - - - - -
28/06:00am 12.7 N 21 25 999.0 - 0.0 - - - - - - -
28/05:30am 12.9 N 25 31 998.8 - 0.0 - - - - - - -
28/05:00am 13.0 N 19 22 999.3 - 0.0 - - - - - - -
28/04:30am 13.5 N 21 25 999.6 - 0.0 - - - - - - -
28/04:00am 13.9 N 22 26 1000.0 - 0.0 - - - - - - -
28/03:30am 13.2 N 13 16 1000.6 - 0.0 - - - - - - -
28/03:00am 13.4 NNW 14 15 1001.4 - 0.0 - - - - - - -
28/02:30am 13.8 N 19 23 1001.4 - 0.0 - - - - - - -
28/02:00am 14.0 N 21 25 1001.5 - 0.0 - - - - - - -
28/01:30am 14.4 N 21 27 1002.1 - 0.0 - - - - - - -
28/01:00am 14.4 N 23 27 1002.3 - 0.0 - - - - - - -
28/12:30am 14.7 N 23 27 1002.3 - 0.0 - - - - - - -
28/12:00am 14.8 NNE 23 27 1002.8 - 0.0 - - - - - - -
 
Date/Time
EST
Temp
°C
Wind Pressure Rain since
9am
mm
Weather Cloud Vis
km
Sea
Height
m
Swell
Dir  Spd
kts
Gust
kts
hPa Trend Height
m
Period
s
Dir
27/11:30pm 14.7 NNE 23 28 1003.0 - 0.0 - - - - - - -
27/11:00pm 14.8 N 24 29 1003.2 - 0.0 - - - - - - -
27/10:30pm 14.7 N 21 24 1004.0 - 0.0 - - - - - - -
27/10:00pm 15.0 N 22 26 1004.3 - 0.0 - - - - - - -
27/09:30pm 15.0 NNE 24 29 1004.3 - 0.0 - - - - - - -
27/09:00pm 14.9 NNE 20 25 1005.0 - 0.0 - - - - - - -
27/08:30pm 15.1 NNE 21 27 1005.3 - 0.0 - - - - - - -
27/08:00pm 15.3 N 24 27 1005.4 - 0.0 - - - - - - -
27/07:30pm 15.0 N 21 26 1005.7 - 0.0 - - - - - - -
27/07:00pm 15.0 N 21 25 1005.8 - 0.0 - - - - - - -
27/06:30pm 15.4 N 19 22 1006.4 - 0.0 - - - - - - -
27/06:00pm 15.4 N 19 23 1006.4 - 0.0 - - - - - - -
27/05:30pm 15.6 N 22 28 1006.4 - 0.0 - - - - - - -
27/05:00pm 15.4 N 21 26 1006.5 - 0.0 - - - - - - -
27/04:30pm 15.2 N 22 28 1006.8 - 0.0 - - - - - - -
27/04:00pm 15.1 N 22 26 1007.0 - 0.0 - - - - - - -
27/03:30pm 14.7 N 19 23 1007.2 - 0.0 - - - - - - -
27/03:00pm 14.9 N 22 25 1007.1 - 0.0 - - - - - - -
27/02:30pm 14.9 N 23 28 1007.3 - 0.0 - - - - - - -
27/02:00pm 15.0 N 15 20 1008.3 - 0.0 - - - - - - -
27/01:30pm 14.8 NNE 16 19 1008.7 - 0.0 - - - - - - -
27/01:00pm 14.6 N 17 22 1009.1 - 0.0 - - - - - - -
27/12:30pm 14.4 NNE 17 21 1009.8 - 0.0 - - - - - - -
27/12:00pm 14.3 N 21 24 1009.9 - 0.0 - - - - - - -
27/11:30am 14.2 N 19 22 1010.6 - 0.0 - - - - - - -
27/11:00am 13.7 NNE 14 18 1011.3 - 0.0 - - - - - - -
27/10:30am 13.3 NNE 15 19 1012.0 - 0.0 - - - - - - -
27/10:00am 13.3 NNE 16 19 1012.5 - 0.0 - - - - - - -
27/09:30am 13.2 N 15 18 1012.7 - 0.0 - - - - - - -
27/09:00am 13.2 N 13 16 1013.0 - 0.0 - - - - - - -
27/08:30am 12.9 N 17 20 1013.0 - 0.0 - - - - - - -
27/08:00am 12.3 NNE 12 16 1013.3 - 0.0 - - - - - - -
27/07:30am 12.1 N 17 20 1013.3 - 0.0 - - - - - - -
27/07:00am 11.9 N 17 20 1013.8 - 0.0 - - - - - - -
27/06:30am 11.4 N 13 16 1014.1 - 0.0 - - - - - - -
27/06:00am 11.5 NNW 12 14 1014.3 - 0.0 - - - - - - -
27/05:30am 11.5 NNW 11 15 1014.5 - 0.0 - - - - - - -
27/05:00am 11.8 N 16 19 1014.1 - 0.0 - - - - - - -
27/04:30am 11.9 N 19 22 1013.8 - 0.0 - - - - - - -
27/04:00am 11.9 N 20 23 1013.7 - 0.0 - - - - - - -
27/03:30am 11.5 N 18 21 1013.9 - 0.0 - - - - - - -
27/03:00am 11.6 N 18 21 1014.5 - 0.0 - - - - - - -

Other Formats:

Comma delimited format used in spreadsheet applications
http://www.bom.gov.au/fwo/IDT60701/IDT60701.95988.axf

JavaScript Object Notation format (JSON) in row-major order
http://www.bom.gov.au/fwo/IDT60701/IDT60701.95988.json